createdAt,value
2018-02-03T17:21:41.249Z,4.40
2018-02-03T17:24:09.533Z,5.00
2018-02-03T17:26:36.997Z,4.00
2018-02-03T17:29:05.299Z,3.23
2018-02-03T17:31:32.784Z,5.70
2018-02-03T17:34:00.242Z,3.43
2018-02-03T17:36:33.425Z,3.60
2018-02-03T17:39:03.818Z,3.60
2018-02-03T17:41:32.042Z,4.23
2018-02-03T17:43:59.521Z,3.70
2018-02-03T17:46:32.638Z,4.77
2018-02-03T17:49:00.899Z,3.93
2018-02-03T17:51:29.135Z,4.17
2018-02-03T17:53:56.622Z,7.10
2018-02-03T17:56:29.710Z,5.73
2018-02-03T17:58:57.971Z,4.20
2018-02-03T18:01:25.474Z,5.20
2018-02-03T18:03:52.950Z,6.70
2018-02-03T18:06:20.445Z,5.60
2018-02-03T18:08:47.917Z,5.33
2018-02-03T18:11:15.392Z,6.93
2018-02-03T18:13:43.620Z,6.00
2018-02-03T18:16:11.119Z,6.80
2018-02-03T18:18:39.432Z,5.27
2018-02-03T18:21:06.922Z,6.00
2018-02-03T18:23:34.401Z,5.37
2018-02-03T18:26:02.687Z,8.40
2018-02-03T18:28:30.151Z,6.33
2018-02-03T18:30:58.389Z,5.87
2018-02-03T18:33:25.855Z,7.07
2018-02-03T18:35:53.314Z,4.80
2018-02-03T18:38:20.770Z,7.80
2018-02-03T18:40:48.251Z,5.83
2018-02-03T18:43:16.486Z,8.77
2018-02-03T18:45:46.604Z,7.43
2018-02-03T18:48:14.103Z,8.37
2018-02-03T18:50:42.405Z,7.40
2018-02-03T18:53:09.896Z,5.30
2018-02-03T18:55:37.398Z,7.07
2018-02-03T18:58:05.838Z,6.67
2018-02-03T19:00:33.327Z,8.50
2018-02-03T19:03:01.574Z,8.00
2018-02-03T19:05:29.227Z,10.33
2018-02-03T19:07:56.698Z,10.60
2018-02-03T19:10:24.183Z,11.50
2018-02-03T19:12:51.650Z,6.77
2018-02-03T19:15:19.143Z,8.63
2018-02-03T19:17:46.615Z,7.47
2018-02-03T19:20:14.110Z,10.27
2018-02-03T19:22:42.344Z,7.43
2018-02-03T19:25:10.604Z,6.97
2018-02-03T19:27:38.090Z,6.37
2018-02-03T19:30:05.580Z,7.07
2018-02-03T19:32:33.825Z,7.27
2018-02-03T19:35:01.307Z,7.27
2018-02-03T19:37:29.562Z,7.07
2018-02-03T19:39:57.039Z,7.20
2018-02-03T19:42:24.566Z,7.00
2018-02-03T19:44:51.986Z,7.97
2018-02-03T19:47:19.459Z,7.23
2018-02-03T19:49:46.931Z,9.33
2018-02-03T19:52:14.407Z,6.77
2018-02-03T19:54:41.868Z,6.67
2018-02-03T19:57:09.338Z,9.47
2018-02-03T19:59:36.810Z,7.10
2018-02-03T20:02:05.057Z,6.20
2018-02-03T20:04:32.515Z,6.50
2018-02-03T20:07:00.024Z,6.97
2018-02-03T20:09:27.501Z,8.13
2018-02-03T20:11:55.691Z,16.40
2018-02-03T20:14:23.159Z,8.27
2018-02-03T20:16:50.657Z,7.67
2018-02-03T20:19:18.911Z,8.27
2018-02-03T20:21:47.168Z,9.33
2018-02-03T20:24:14.720Z,8.37
2018-02-03T20:26:42.202Z,9.03
2018-02-03T20:29:09.678Z,8.13
2018-02-03T20:31:37.177Z,10.37
2018-02-03T20:34:04.639Z,10.37
2018-02-03T20:36:32.139Z,10.07
2018-02-03T20:39:00.397Z,10.73
2018-02-03T20:41:27.879Z,9.37
2018-02-03T20:43:56.121Z,10.03
2018-02-03T20:46:23.643Z,10.47
2018-02-03T20:48:51.140Z,8.83
2018-02-03T20:51:18.640Z,8.27
2018-02-03T20:53:46.875Z,8.07
2018-02-03T20:56:14.355Z,9.13
2018-02-03T20:58:42.725Z,10.40
2018-02-03T21:01:10.205Z,10.57
2018-02-03T21:03:38.663Z,11.37
2018-02-03T21:06:06.135Z,9.37
2018-02-03T21:08:34.411Z,9.87
2018-02-03T21:11:02.652Z,9.67
2018-02-03T21:13:30.126Z,10.70
2018-02-03T21:15:57.600Z,12.10
2018-02-03T21:18:25.846Z,12.00
2018-02-03T21:20:53.329Z,10.23
2018-02-03T21:23:21.633Z,9.73
2018-02-03T21:25:49.114Z,14.13
2018-02-03T21:28:16.573Z,10.97
2018-02-03T21:30:44.077Z,10.77
2018-02-03T21:33:11.559Z,17.23
2018-02-03T21:35:39.044Z,12.17
2018-02-03T21:38:06.897Z,12.20
2018-02-03T21:40:35.182Z,12.37
2018-02-03T21:43:02.693Z,13.23
2018-02-03T21:45:30.919Z,15.83
2018-02-03T21:47:58.399Z,24.10
2018-02-03T21:50:25.863Z,16.17
2018-02-03T21:52:53.323Z,12.10
2018-02-03T21:55:20.777Z,11.87
2018-02-03T21:57:48.246Z,10.97
2018-02-03T22:00:15.702Z,11.20
2018-02-03T22:02:43.178Z,12.30
2018-02-03T22:05:11.422Z,10.80
2018-02-03T22:07:38.889Z,11.87
2018-02-03T22:10:06.369Z,11.33
2018-02-03T22:12:34.611Z,12.57
2018-02-03T22:15:02.077Z,10.83
2018-02-03T22:17:30.290Z,10.37
2018-02-03T22:19:57.758Z,12.33
2018-02-03T22:22:25.225Z,9.97
2018-02-03T22:24:52.693Z,10.37
2018-02-03T22:27:20.163Z,13.37
2018-02-03T22:29:48.550Z,12.27
2018-02-03T22:32:16.015Z,12.97
2018-02-03T22:34:43.490Z,11.17
2018-02-03T22:37:10.942Z,11.77
2018-02-03T22:39:38.411Z,12.40
2018-02-03T22:42:05.872Z,12.57
2018-02-03T22:44:33.342Z,15.37
2018-02-03T22:47:00.833Z,14.37
2018-02-03T22:49:28.306Z,15.73
2018-02-03T22:51:55.785Z,16.60
2018-02-03T22:54:23.255Z,17.50
2018-02-03T22:56:51.516Z,10.23
2018-02-03T22:59:19.763Z,14.93
2018-02-03T23:01:47.234Z,10.37
2018-02-03T23:04:14.694Z,17.87
2018-02-03T23:06:42.174Z,21.83
2018-02-03T23:09:10.430Z,13.80
2018-02-03T23:11:37.904Z,13.43
2018-02-03T23:14:06.148Z,14.50
2018-02-03T23:16:33.620Z,15.93
2018-02-03T23:19:01.097Z,13.90
2018-02-03T23:21:29.333Z,11.67
2018-02-03T23:23:56.824Z,13.03
2018-02-03T23:26:24.286Z,10.77
2018-02-03T23:28:52.523Z,12.77
2018-02-03T23:31:20.002Z,11.20
2018-02-03T23:33:47.482Z,12.50
2018-02-03T23:36:15.725Z,14.73
2018-02-03T23:38:43.198Z,13.63
2018-02-03T23:41:10.679Z,13.57
2018-02-03T23:43:38.152Z,12.43
2018-02-03T23:46:05.644Z,12.80
2018-02-03T23:48:33.115Z,12.07
2018-02-03T23:51:00.606Z,14.03
2018-02-03T23:53:28.848Z,17.80
2018-02-03T23:55:56.328Z,18.77
2018-02-03T23:58:24.564Z,14.20
